Time;durP1;ratioP1;P1;durP2;ratioP2;P2;SDS_P1;SDS_P2;PMS_P1;PMS_P2;Temp;Humidity;BMP_temperature;BMP_pressure;BME280_temperature;BME280_humidity;BME280_pressure;Samples;Min_cycle;Max_cycle;Signal;HPM_P1;HPM_P2
2023/10/13 00:00:41;;;;;;;6.10;2.78;;;;;;;22.81;100.00;100864.25;4928196;29;20056;-40
2023/10/13 00:03:14;;;;;;;7.80;3.10;;;;;;;22.84;100.00;100866.84;4929715;29;20044;-43
2023/10/13 00:05:43;;;;;;;6.05;2.78;;;;;;;22.86;100.00;100869.19;4929293;29;20058;-43
2023/10/13 00:08:10;;;;;;;9.80;3.20;;;;;;;22.84;100.00;100863.22;4930406;29;20130;-44
2023/10/13 00:10:36;;;;;;;5.70;2.40;;;;;;;22.83;100.00;100858.84;4922118;29;20480;-40
2023/10/13 00:13:11;;;;;;;5.40;2.70;;;;;;;22.80;100.00;100854.97;4927844;29;20119;-49
2023/10/13 00:15:57;;;;;;;8.75;2.85;;;;;;;22.83;100.00;100850.34;4911411;29;20130;-48
2023/10/13 00:18:41;;;;;;;14.13;3.15;;;;;;;22.84;100.00;100851.88;4929161;29;20052;-51
2023/10/13 00:23:54;;;;;;;6.40;2.88;;;;;;;22.87;100.00;100839.56;4927136;29;20143;-49
2023/10/13 00:26:27;;;;;;;6.45;2.65;;;;;;;22.82;100.00;100840.28;4934562;29;20051;-52
2023/10/13 00:31:42;;;;;;;7.10;3.15;;;;;;;22.82;100.00;100828.94;4931317;29;20055;-49
2023/10/13 00:34:19;;;;;;;8.65;2.97;;;;;;;22.84;100.00;100832.03;4933611;29;20062;-49
2023/10/13 00:37:10;;;;;;;6.43;2.55;;;;;;;22.77;100.00;100819.09;4927874;29;20048;-51
2023/10/13 00:39:36;;;;;;;5.50;2.33;;;;;;;22.79;100.00;100821.44;4931149;29;20052;-51
2023/10/13 00:42:07;;;;;;;5.00;2.20;;;;;;;22.81;100.00;100816.81;4935324;29;20099;-52
2023/10/13 00:44:43;;;;;;;6.78;2.53;;;;;;;22.79;100.00;100810.91;4936265;29;20503;-49
2023/10/13 00:47:32;;;;;;;5.95;2.70;;;;;;;22.80;100.00;100809.59;4934339;29;20147;-52
2023/10/13 00:49:58;;;;;;;4.72;2.40;;;;;;;22.84;100.00;100810.16;4932511;29;20055;-49
2023/10/13 00:52:25;;;;;;;8.05;2.78;;;;;;;22.88;100.00;100801.44;4932239;29;20467;-51
2023/10/13 00:54:53;;;;;;;5.25;2.67;;;;;;;22.86;100.00;100806.81;4930905;29;20087;-48
2023/10/13 00:57:26;;;;;;;6.05;2.58;;;;;;;22.82;100.00;100806.28;4932272;29;20102;-51
2023/10/13 00:59:54;;;;;;;6.70;2.63;;;;;;;22.80;100.00;100797.47;4927182;29;20047;-49
2023/10/13 01:05:03;;;;;;;6.88;2.22;;;;;;;22.82;100.00;100801.41;4931379;29;20525;-48
2023/10/13 01:07:30;;;;;;;6.07;2.40;;;;;;;22.80;100.00;100800.31;4933881;29;20055;-51
2023/10/13 01:09:57;;;;;;;6.50;2.65;;;;;;;22.83;100.00;100802.16;4932878;29;20051;-49
2023/10/13 01:12:23;;;;;;;4.63;2.60;;;;;;;22.79;100.00;100799.56;4928720;29;20078;-51
2023/10/13 01:14:51;;;;;;;5.53;2.38;;;;;;;22.80;100.00;100795.44;4932824;29;20607;-50
2023/10/13 01:17:18;;;;;;;5.53;2.55;;;;;;;22.79;100.00;100790.25;4932824;29;20056;-52
2023/10/13 01:19:48;;;;;;;7.45;2.78;;;;;;;22.83;100.00;100796.47;4933205;29;20403;-42
2023/10/13 01:22:15;;;;;;;5.57;2.45;;;;;;;22.86;100.00;100789.81;4930810;29;20151;-43
2023/10/13 01:24:42;;;;;;;5.05;2.35;;;;;;;22.81;100.00;100782.81;4932931;29;20465;-46
2023/10/13 01:27:18;;;;;;;5.88;2.38;;;;;;;22.85;100.00;100771.25;4930415;29;20052;-46
2023/10/13 01:29:49;;;;;;;6.60;2.72;;;;;;;22.83;100.00;100773.81;4930715;29;20051;-44
2023/10/13 01:32:17;;;;;;;6.93;2.72;;;;;;;22.80;100.00;100771.97;4931649;29;20054;-45
2023/10/13 01:34:46;;;;;;;5.80;2.60;;;;;;;22.83;100.00;100773.81;4931772;29;20048;-47
2023/10/13 01:37:15;;;;;;;5.95;2.42;;;;;;;22.81;100.00;100768.63;4932259;29;20102;-41
2023/10/13 01:39:47;;;;;;;4.00;2.22;;;;;;;22.80;100.00;100769.94;4930400;29;20079;-43
2023/10/13 01:42:19;;;;;;;3.97;2.35;;;;;;;22.77;100.00;100755.97;4931956;29;20111;-43
2023/10/13 01:44:46;;;;;;;7.38;2.28;;;;;;;22.79;100.00;100757.03;4932347;29;20507;-42
2023/10/13 01:47:12;;;;;;;5.72;2.28;;;;;;;22.81;100.00;100759.38;4931580;29;20044;-43
2023/10/13 01:49:42;;;;;;;5.03;2.30;;;;;;;22.83;100.00;100753.97;4932603;29;20090;-46
2023/10/13 01:52:15;;;;;;;8.75;2.90;;;;;;;22.95;100.00;100742.22;4931248;29;20052;-41
2023/10/13 01:54:48;;;;;;;6.28;2.88;;;;;;;22.90;100.00;100742.19;4930912;29;20055;-42
2023/10/13 01:57:18;;;;;;;8.35;2.47;;;;;;;22.90;100.00;100740.13;4930852;29;20106;-44
2023/10/13 01:59:47;;;;;;;6.00;2.35;;;;;;;22.87;100.00;100737.50;4931477;29;20085;-41
2023/10/13 02:02:19;;;;;;;4.65;2.50;;;;;;;22.85;100.00;100728.75;4931175;29;20054;-46
2023/10/13 02:04:49;;;;;;;8.13;2.65;;;;;;;22.86;100.00;100721.78;4932312;29;20063;-45
2023/10/13 02:07:16;;;;;;;4.93;2.45;;;;;;;22.81;100.00;100716.88;4931152;29;20570;-48
2023/10/13 02:09:43;;;;;;;6.70;2.20;;;;;;;22.79;100.00;100711.69;4929930;29;20047;-42
2023/10/13 02:12:10;;;;;;;5.40;2.33;;;;;;;22.88;100.00;100716.41;4931637;29;20052;-49
2023/10/13 02:14:42;;;;;;;7.78;2.33;;;;;;;22.87;100.00;100720.50;4933632;29;20052;-49
2023/10/13 02:17:16;;;;;;;5.88;2.40;;;;;;;22.85;100.00;100706.06;4932586;29;20051;-50
2023/10/13 02:19:46;;;;;;;5.55;2.45;;;;;;;22.85;100.00;100708.91;4926337;29;20052;-50
2023/10/13 02:22:26;;;;;;;8.98;2.50;;;;;;;22.85;100.00;100708.91;4930750;29;20056;-49
2023/10/13 02:24:53;;;;;;;6.32;2.15;;;;;;;22.81;100.00;100699.84;4932215;29;20048;-49
2023/10/13 02:27:23;;;;;;;5.05;2.20;;;;;;;22.81;100.00;100699.84;4933047;29;20079;-49
2023/10/13 02:29:50;;;;;;;5.13;2.40;;;;;;;22.84;100.00;100687.50;4931775;29;20055;-50
2023/10/13 02:32:19;;;;;;;6.97;2.42;;;;;;;22.80;100.00;100692.63;4932277;29;20150;-49
2023/10/13 02:34:46;;;;;;;9.93;2.33;;;;;;;22.84;100.00;100688.28;4932193;29;20142;-52
2023/10/13 02:37:13;;;;;;;5.60;2.60;;;;;;;22.82;100.00;100687.22;4932893;29;20099;-52
2023/10/13 02:39:41;;;;;;;4.50;2.28;;;;;;;22.79;100.00;100679.72;4932141;29;20054;-49
2023/10/13 02:42:08;;;;;;;5.22;2.08;;;;;;;22.76;100.00;100672.22;4932825;29;20135;-49
2023/10/13 02:44:36;;;;;;;6.40;2.90;;;;;;;22.83;100.00;100669.72;4931650;29;20079;-48
2023/10/13 02:47:13;;;;;;;6.28;2.20;;;;;;;22.81;100.00;100665.84;4932622;29;20051;-53
2023/10/13 02:49:43;;;;;;;6.05;2.17;;;;;;;22.80;100.00;100667.91;4930800;29;20122;-52
2023/10/13 02:52:10;;;;;;;8.68;2.60;;;;;;;22.80;100.00;100665.06;4932413;29;20091;-52
2023/10/13 02:54:42;;;;;;;7.63;2.38;;;;;;;22.77;100.00;100660.41;4932325;29;20063;-48
2023/10/13 02:57:09;;;;;;;6.90;2.13;;;;;;;22.81;100.00;100671.53;4929996;29;20127;-48
2023/10/13 02:59:46;;;;;;;3.92;2.05;;;;;;;22.81;100.00;100663.00;4932627;29;20122;-51
2023/10/13 03:02:29;;;;;;;5.30;2.35;;;;;;;22.82;100.00;100661.72;4931196;29;20095;-50
2023/10/13 03:05:08;;;;;;;4.22;2.00;;;;;;;22.83;100.00;100663.28;4926333;29;20059;-49
2023/10/13 03:07:36;;;;;;;4.88;1.90;;;;;;;22.82;100.00;100659.69;4932291;29;20055;-49
2023/10/13 03:10:09;;;;;;;7.28;2.15;;;;;;;22.82;100.00;100644.72;4931870;29;20414;-50
2023/10/13 03:12:38;;;;;;;5.00;2.00;;;;;;;22.82;100.00;100645.50;4931534;29;20139;-49
2023/10/13 03:17:43;;;;;;;6.68;2.22;;;;;;;22.81;100.00;100638.25;4931231;29;20418;-49
2023/10/13 03:20:15;;;;;;;4.72;2.42;;;;;;;22.82;100.00;100639.06;4932008;29;20055;-51
2023/10/13 03:22:46;;;;;;;7.57;1.98;;;;;;;22.82;100.00;100633.38;4932122;29;20716;-49
2023/10/13 03:25:23;;;;;;;5.65;2.10;;;;;;;22.82;100.00;100620.00;4931116;29;20052;-49
2023/10/13 03:30:21;;;;;;;4.90;2.22;;;;;;;22.81;100.00;100612.75;4931129;29;20130;-51
2023/10/13 03:32:54;;;;;;;3.72;1.90;;;;;;;22.82;100.00;100610.72;4931992;29;20060;-49
2023/10/13 03:35:24;;;;;;;4.07;1.88;;;;;;;22.83;100.00;100615.88;4931815;29;20470;-52
2023/10/13 03:37:54;;;;;;;6.63;2.40;;;;;;;22.81;100.00;100606.34;4930974;29;20056;-49
2023/10/13 03:43:10;;;;;;;4.13;2.00;;;;;;;22.77;100.00;100594.44;4931983;29;20103;-51
2023/10/13 03:45:42;;;;;;;4.85;2.40;;;;;;;22.76;100.00;100602.16;4929803;29;20054;-49
2023/10/13 03:51:14;;;;;;;5.28;2.05;;;;;;;22.75;100.00;100597.00;4919167;29;20079;-50
2023/10/13 03:53:54;;;;;;;4.70;1.80;;;;;;;22.76;100.00;100590.03;4931254;29;20079;-48
2023/10/13 03:56:27;;;;;;;5.78;2.10;;;;;;;22.78;100.00;100584.66;4931709;29;20047;-50
2023/10/13 04:01:57;;;;;;;;;;;;;;;;;;;;;
2023/10/13 04:04:15;;;;;;;4.47;2.28;;;;;;;22.77;100.00;100571.75;4930815;29;20047;-50
2023/10/13 04:17:22;;;;;;;5.32;1.98;;;;;;;22.76;100.00;100537.00;4929490;29;20043;-48
2023/10/13 04:25:35;;;;;;;2.75;2.03;;;;;;;22.76;100.00;100524.88;4928135;29;20158;-46
2023/10/13 04:36:16;;;;;;;6.15;2.25;;;;;;;22.75;100.00;100515.59;4923194;29;20055;-43
2023/10/13 04:41:32;;;;;;;3.10;1.77;;;;;;;22.74;100.00;100501.94;4929149;29;20044;-45
2023/10/13 04:44:05;;;;;;;4.25;1.88;;;;;;;22.75;100.00;100500.66;4931385;29;20055;-44
2023/10/13 04:49:29;;;;;;;2.95;1.80;;;;;;;22.72;100.00;100487.50;4927438;29;20058;-40
2023/10/13 04:52:01;;;;;;;4.10;2.10;;;;;;;22.74;100.00;100479.28;4923987;29;20051;-42
2023/10/13 04:54:45;;;;;;;3.95;1.98;;;;;;;22.72;100.00;100479.78;4927468;29;20061;-41
2023/10/13 06:30:06;;;;;;;4.50;1.85;;;;;;;22.70;100.00;100416.38;4929352;29;20056;-41
2023/10/13 06:32:33;;;;;;;3.53;1.92;;;;;;;22.71;100.00;100403.78;4931904;29;20056;-40
2023/10/13 06:35:44;;;;;;;3.10;1.75;;;;;;;22.70;100.00;100407.88;4933102;29;20574;-46
2023/10/13 06:37:53;;;;;;;5.28;1.90;;;;;;;22.69;100.00;100407.13;4925047;29;20078;-43
2023/10/13 06:40:25;;;;;;;5.15;1.50;;;;;;;22.69;100.00;100403.50;4931627;29;20051;-44
2023/10/13 06:43:11;;;;;;;4.82;1.83;;;;;;;22.69;100.00;100417.66;4930717;29;20055;-44
2023/10/13 06:45:38;;;;;;;2.95;1.63;;;;;;;22.69;100.00;100400.66;4931664;29;20063;-38
2023/10/13 06:48:06;;;;;;;3.47;1.63;;;;;;;22.68;100.00;100401.97;4930901;29;20055;-40
2023/10/13 06:50:39;;;;;;;4.50;1.60;;;;;;;22.66;100.00;100401.69;4932570;29;20066;-46
2023/10/13 06:53:05;;;;;;;3.90;2.03;;;;;;;22.67;100.00;100397.56;4932530;29;20127;-41
2023/10/13 06:55:39;;;;;;;5.63;1.98;;;;;;;22.68;100.00;100387.78;4932458;29;20047;-40
2023/10/13 06:58:06;;;;;;;3.03;1.57;;;;;;;22.65;100.00;100392.44;4931420;29;20043;-43
2023/10/13 07:00:34;;;;;;;3.78;1.83;;;;;;;22.67;100.00;100392.69;4930666;29;20138;-40
2023/10/13 07:03:08;;;;;;;5.85;2.53;;;;;;;22.65;100.00;100389.59;4928328;29;20139;-45
2023/10/13 07:05:39;;;;;;;2.90;1.50;;;;;;;22.68;100.00;100393.47;4932553;29;20051;-42
2023/10/13 07:08:06;;;;;;;2.50;1.60;;;;;;;22.65;100.00;100405.81;4932362;29;20048;-42
2023/10/13 07:10:48;;;;;;;3.10;1.90;;;;;;;22.69;100.00;100401.44;4928935;29;20419;-45
2023/10/13 07:13:16;;;;;;;2.15;1.30;;;;;;;22.68;100.00;100401.97;4929962;29;20122;-50
2023/10/13 07:15:47;;;;;;;3.25;1.52;;;;;;;22.69;100.00;100407.13;4929274;29;20052;-43
2023/10/13 07:18:17;;;;;;;4.75;2.03;;;;;;;22.64;100.00;100399.34;4915034;29;20102;-41
2023/10/13 07:20:43;;;;;;;5.55;1.83;;;;;;;22.69;100.00;100398.63;4930319;29;20130;-45
2023/10/13 07:23:17;;;;;;;5.45;1.73;;;;;;;22.64;100.00;100395.75;4928350;29;20048;-40
2023/10/13 07:26:02;;;;;;;5.45;1.80;;;;;;;22.69;100.00;100390.13;4932072;29;20055;-46
2023/10/13 07:28:36;;;;;;;4.00;1.58;;;;;;;22.69;100.00;100395.78;4930590;29;20079;-47
2023/10/13 07:33:31;;;;;;;6.82;2.58;;;;;;;22.65;100.00;100389.59;4912601;29;20067;-41
2023/10/13 07:36:10;;;;;;;9.13;2.28;;;;;;;22.66;100.00;100384.69;4930561;29;20051;-41
2023/10/13 07:38:42;;;;;;;10.55;1.88;;;;;;;22.68;100.00;100384.97;4930405;29;20047;-40
2023/10/13 07:41:09;;;;;;;15.63;3.13;;;;;;;22.68;100.00;100382.88;4931276;29;20056;-44
2023/10/13 07:43:39;;;;;;;17.17;3.03;;;;;;;22.69;100.00;100383.66;4937225;29;20055;-45
2023/10/13 07:46:09;;;;;;;16.95;3.20;;;;;;;22.71;100.00;100378.28;4932155;29;20138;-46
2023/10/13 07:48:37;;;;;;;17.40;2.92;;;;;;;22.72;100.00;100371.31;4929894;29;20044;-47
2023/10/13 07:51:11;;;;;;;15.57;2.53;;;;;;;22.71;100.00;100375.44;4930756;29;20070;-44
2023/10/13 07:53:40;;;;;;;13.48;2.40;;;;;;;22.75;100.00;100365.38;4913687;29;20055;-40
2023/10/13 07:56:13;;;;;;;12.02;2.17;;;;;;;22.71;100.00;100361.28;4931595;29;20102;-42
2023/10/13 07:58:52;;;;;;;13.65;2.28;;;;;;;22.69;100.00;100372.34;4923411;29;20051;-47
2023/10/13 08:01:19;;;;;;;13.88;2.50;;;;;;;22.68;100.00;100363.06;4930545;29;20058;-40
2023/10/13 08:03:47;;;;;;;10.20;2.92;;;;;;;22.67;100.00;100358.69;4937609;29;20047;-48
2023/10/13 08:08:50;;;;;;;12.15;3.00;;;;;;;22.64;100.00;100358.94;4926781;29;20043;-40
2023/10/13 08:13:53;;;;;;;8.10;1.98;;;;;;;22.68;100.00;100348.13;4930781;29;20746;-42
2023/10/13 08:16:47;;;;;;;10.77;2.85;;;;;;;22.64;100.00;100350.44;4928765;29;20075;-42
2023/10/13 08:19:20;;;;;;;12.73;3.10;;;;;;;22.60;100.00;100341.38;4931288;29;20062;-40
2023/10/13 08:22:14;;;;;;;13.43;3.20;;;;;;;22.58;100.00;100346.78;4930128;29;20400;-45
2023/10/13 08:37:45;;;;;;;13.93;4.93;;;;;;;22.50;100.00;100317.38;4930986;29;20048;-43
2023/10/13 08:43:13;;;;;;;13.57;4.25;;;;;;;22.44;100.00;100320.19;4894315;29;20127;-45
2023/10/13 08:50:52;;;;;;;19.80;5.13;;;;;;;22.53;100.00;100305.03;4933023;29;20134;-42
2023/10/13 09:18:15;;;;;;;17.63;5.40;;;;;;;22.55;100.00;100260.00;4933947;29;20130;-41
2023/10/13 09:23:28;;;;;;;20.27;5.70;;;;;;;22.48;100.00;100243.50;4933828;29;20059;-40
2023/10/13 09:26:12;;;;;;;18.58;6.05;;;;;;;22.47;100.00;100241.97;4932216;29;20594;-45
2023/10/13 09:28:39;;;;;;;19.60;6.40;;;;;;;22.55;100.00;100257.16;4933884;29;20564;-43
2023/10/13 09:31:09;;;;;;;21.00;6.45;;;;;;;22.62;100.00;100245.34;4936210;29;20051;-42
2023/10/13 09:33:36;;;;;;;17.80;6.07;;;;;;;22.60;100.00;100242.22;4931832;29;20062;-42
2023/10/13 09:36:04;;;;;;;18.73;5.82;;;;;;;22.52;100.00;100235.53;4933386;29;20066;-39
2023/10/13 09:39:10;;;;;;;18.33;5.72;;;;;;;22.50;100.00;100233.19;4929593;29;20055;-46
2023/10/13 09:41:32;;;;;;;17.08;6.22;;;;;;;22.45;100.00;100242.47;4930502;29;20079;-47
2023/10/13 09:43:58;;;;;;;20.40;6.45;;;;;;;22.47;100.00;100230.63;4931603;29;20427;-46
2023/10/13 09:46:28;;;;;;;17.88;5.45;;;;;;;22.48;100.00;100220.84;4931837;29;20048;-46
2023/10/13 09:49:06;;;;;;;18.13;5.60;;;;;;;22.54;100.00;100225.22;4930840;29;20058;-46
2023/10/13 09:51:33;;;;;;;19.27;5.32;;;;;;;22.55;100.00;100231.66;4930173;29;20052;-50
2023/10/13 09:54:11;;;;;;;21.40;6.72;;;;;;;22.56;100.00;100216.22;4931913;29;20067;-50
2023/10/13 09:56:54;;;;;;;17.83;5.20;;;;;;;22.60;100.00;100219.56;4865678;29;20465;-49
2023/10/13 09:59:34;;;;;;;12.85;4.90;;;;;;;22.65;100.00;100218.81;4874813;29;20155;-49
2023/10/13 10:02:09;;;;;;;18.25;6.28;;;;;;;22.64;100.00;100226.53;4866606;29;20060;-48
2023/10/13 10:04:50;;;;;;;19.17;5.40;;;;;;;22.62;100.00;100219.84;4859948;29;20124;-51
2023/10/13 10:07:27;;;;;;;21.25;5.65;;;;;;;22.65;100.00;100222.44;4863359;29;20101;-48
2023/10/13 10:10:01;;;;;;;20.27;5.80;;;;;;;22.70;100.00;100215.19;4858322;29;20072;-44
2023/10/13 10:12:57;;;;;;;22.83;6.60;;;;;;;22.71;100.00;100203.34;4854265;29;20089;-47
2023/10/13 10:15:35;;;;;;;17.63;5.90;;;;;;;22.70;100.00;100206.69;4908906;29;20055;-49
2023/10/13 10:18:03;;;;;;;20.40;6.07;;;;;;;22.70;100.00;100212.38;4931687;29;20054;-48
2023/10/13 10:20:41;;;;;;;12.40;5.53;;;;;;;22.74;100.00;100219.34;4932517;29;20047;-47
2023/10/13 10:23:17;;;;;;;17.10;5.75;;;;;;;22.76;100.00;100196.94;4931111;29;20040;-47
2023/10/13 10:25:46;;;;;;;17.38;5.45;;;;;;;22.75;100.00;100197.44;4931767;29;20110;-48
2023/10/13 10:28:15;;;;;;;20.15;5.63;;;;;;;22.71;100.00;100196.94;4932720;29;20044;-47
2023/10/13 10:30:43;;;;;;;22.85;7.05;;;;;;;22.74;100.00;100182.50;4931015;29;20566;-49
2023/10/13 10:33:15;;;;;;;17.35;6.00;;;;;;;22.73;100.00;100191.50;4931526;29;20498;-47
2023/10/13 10:35:43;;;;;;;17.92;5.68;;;;;;;22.63;100.00;100184.53;4916760;29;20048;-48
2023/10/13 10:41:13;;;;;;;17.75;6.18;;;;;;;22.70;100.00;100198.19;4925936;29;20111;-50
2023/10/13 10:43:42;;;;;;;16.92;6.15;;;;;;;22.65;100.00;100201.81;4927623;29;20063;-48
2023/10/13 10:46:11;;;;;;;19.25;6.90;;;;;;;22.63;100.00;100190.22;4931299;29;20178;-48
2023/10/13 10:48:43;;;;;;;15.90;6.57;;;;;;;22.63;100.00;100199.50;4930892;29;20051;-49
2023/10/13 10:51:57;;;;;;;19.75;7.43;;;;;;;22.65;100.00;100179.94;4932044;29;20566;-48
2023/10/13 10:54:11;;;;;;;24.40;5.95;;;;;;;22.66;100.00;100177.84;4921614;29;20047;-49
2023/10/13 10:56:38;;;;;;;19.48;6.45;;;;;;;22.66;100.00;100170.13;4933229;29;20435;-47
2023/10/13 10:59:18;;;;;;;15.38;6.97;;;;;;;22.67;100.00;100168.06;4929090;29;20158;-48
2023/10/13 11:01:52;;;;;;;18.23;7.00;;;;;;;22.68;100.00;100169.63;4927307;29;20047;-47
2023/10/13 11:06:58;;;;;;;21.83;6.93;;;;;;;22.69;100.00;100160.63;4927992;29;20059;-48
2023/10/13 11:09:31;;;;;;;18.38;6.35;;;;;;;22.73;100.00;100158.28;4928520;29;20114;-50
2023/10/13 11:12:14;;;;;;;16.67;6.30;;;;;;;22.72;100.00;100156.75;4931577;29;20052;-49
2023/10/13 11:14:48;;;;;;;15.52;6.72;;;;;;;22.76;100.00;100142.31;4931087;29;20079;-49
2023/10/13 11:17:26;;;;;;;22.85;7.05;;;;;;;22.73;100.00;100132.78;4932121;29;20095;-49
2023/10/13 11:19:53;;;;;;;17.70;6.45;;;;;;;22.77;100.00;100146.69;4931969;29;20047;-49
2023/10/13 11:22:36;;;;;;;16.27;6.25;;;;;;;22.76;100.00;100128.94;4930926;29;20052;-48
2023/10/13 11:25:10;;;;;;;16.92;6.00;;;;;;;22.79;100.00;100127.13;4926494;29;20075;-51
2023/10/13 11:30:25;;;;;;;19.05;6.85;;;;;;;22.79;100.00;100122.25;4931639;29;20095;-48
2023/10/13 11:32:58;;;;;;;16.90;7.30;;;;;;;22.81;100.00;100118.88;4930949;29;20059;-48
2023/10/13 11:35:25;;;;;;;21.27;5.82;;;;;;;22.80;100.00;100118.09;4928586;29;20487;-47
2023/10/13 11:38:12;;;;;;;13.90;6.15;;;;;;;22.80;100.00;100106.78;4930179;29;20079;-48
2023/10/13 11:43:24;;;;;;;;;;;;;;;22.81;100.00;100096.22;4930391;29;20043;-47
2023/10/13 11:48:46;;;;;;;20.42;6.40;;;;;;;22.81;100.00;100085.63;4905189;29;20515;-45
2023/10/13 11:51:17;;;;;;;15.10;5.22;;;;;;;22.81;100.00;100085.63;4931216;29;20138;-48
2023/10/13 11:53:51;;;;;;;17.98;6.57;;;;;;;22.81;100.00;100071.47;4929536;29;20044;-47
2023/10/13 11:56:22;;;;;;;17.27;6.35;;;;;;;22.82;100.00;100070.19;4931521;29;20052;-48
2023/10/13 11:58:49;;;;;;;15.50;6.20;;;;;;;22.82;100.00;100061.69;4931225;29;20052;-48
2023/10/13 12:11:48;;;;;;;18.17;6.43;;;;;;;22.89;100.00;100054.72;4922834;29;20051;-49
2023/10/13 12:14:37;;;;;;;14.10;5.68;;;;;;;22.89;100.00;100052.66;4930860;29;20051;-49
2023/10/13 12:17:04;;;;;;;13.65;5.47;;;;;;;22.91;100.00;100049.31;4931261;29;20055;-50
2023/10/13 12:19:31;;;;;;;16.85;6.72;;;;;;;22.88;100.00;100053.94;4930423;29;20063;-47
2023/10/13 12:22:05;;;;;;;15.52;6.15;;;;;;;22.89;100.00;100054.72;4929389;29;20048;-48
2023/10/13 12:27:20;;;;;;;15.70;5.93;;;;;;;22.92;100.00;100065.03;4929499;29;20060;-50
2023/10/13 12:29:51;;;;;;;16.95;6.40;;;;;;;22.90;100.00;100051.38;4923944;29;20490;-49
2023/10/13 12:32:30;;;;;;;15.43;6.40;;;;;;;22.90;100.00;100045.69;4930897;29;20058;-48
2023/10/13 12:34:59;;;;;;;17.00;5.97;;;;;;;22.91;100.00;100037.97;4931412;29;20043;-50
2023/10/13 12:54:16;;;;;;;;;;;;;;;22.83;100.00;100008.59;4931467;29;20095;-46
2023/10/13 12:56:42;;;;;;;17.33;5.80;;;;;;;22.80;100.00;100006.81;4929605;29;20320;-48
2023/10/13 12:59:13;;;;;;;20.67;6.90;;;;;;;22.82;100.00;99998.56;4909300;29;20139;-51
2023/10/13 13:01:43;;;;;;;17.50;6.30;;;;;;;22.87;100.00;100004.22;4922851;29;20606;-52
2023/10/13 13:04:18;;;;;;;18.17;6.90;;;;;;;22.88;100.00;100002.19;4927455;29;20514;-49
2023/10/13 13:06:45;;;;;;;18.25;5.85;;;;;;;22.88;100.00;100019.19;4930835;29;20125;-50
2023/10/13 13:09:12;;;;;;;14.77;6.15;;;;;;;22.89;100.00;100032.81;4928060;29;20491;-49
2023/10/13 13:11:41;;;;;;;15.57;6.40;;;;;;;22.88;100.00;100027.69;4928601;29;20043;-51
2023/10/13 13:14:08;;;;;;;16.17;5.97;;;;;;;22.86;100.00;100025.38;4926376;29;20044;-48
2023/10/13 13:16:38;;;;;;;15.57;6.47;;;;;;;22.89;100.00;100009.38;4929902;29;20543;-49
2023/10/13 13:19:14;;;;;;;17.48;5.80;;;;;;;22.89;100.00;100017.88;4930047;29;20060;-50
2023/10/13 13:21:41;;;;;;;13.55;5.38;;;;;;;22.90;100.00;100013.75;4929575;29;20134;-48
2023/10/13 13:24:10;;;;;;;18.90;6.00;;;;;;;22.93;100.00;100026.88;4930473;29;20043;-47
2023/10/13 13:26:40;;;;;;;18.52;5.78;;;;;;;22.95;100.00;100010.88;4923773;29;20138;-47
2023/10/13 13:29:09;;;;;;;19.83;5.88;;;;;;;22.91;100.00;100003.97;4925097;29;20051;-50
2023/10/13 13:31:41;;;;;;;22.00;6.20;;;;;;;22.95;100.00;100022.22;4927120;29;20139;-50
2023/10/13 13:34:12;;;;;;;22.75;5.78;;;;;;;22.94;100.00;100000.06;4925959;29;20051;-50
2023/10/13 13:36:44;;;;;;;17.60;5.88;;;;;;;22.95;100.00;100007.31;4933479;29;20055;-51
2023/10/13 13:39:11;;;;;;;18.00;5.95;;;;;;;22.95;100.00;100004.47;4929723;29;20592;-51
2023/10/13 13:41:38;;;;;;;15.60;5.32;;;;;;;22.94;100.00;100005.75;4934467;29;20192;-49
2023/10/13 13:44:13;;;;;;;14.95;5.72;;;;;;;22.95;100.00;99990.28;4937338;29;20102;-49
2023/10/13 13:46:43;;;;;;;17.30;5.88;;;;;;;22.92;100.00;99988.50;4932718;29;20515;-49
2023/10/13 13:49:22;;;;;;;17.92;6.28;;;;;;;22.92;100.00;99982.84;4933218;29;20494;-50
2023/10/13 13:51:51;;;;;;;19.27;6.15;;;;;;;22.96;100.00;100003.16;4934251;29;20138;-48
2023/10/13 13:54:20;;;;;;;19.58;6.43;;;;;;;22.94;100.00;100002.91;4931311;29;20043;-49
2023/10/13 13:56:47;;;;;;;18.23;5.97;;;;;;;22.93;100.00;99990.03;4933795;29;20075;-49
2023/10/13 13:59:19;;;;;;;14.88;5.40;;;;;;;22.90;100.00;99994.69;4937955;29;20132;-49
2023/10/13 14:01:46;;;;;;;15.90;5.28;;;;;;;22.88;100.00;99991.59;4945204;29;20055;-51
2023/10/13 14:04:17;;;;;;;16.33;6.20;;;;;;;22.92;100.00;99988.50;4933517;29;20135;-48
2023/10/13 14:06:44;;;;;;;14.00;5.35;;;;;;;22.86;100.00;99973.56;4933217;29;20055;-50
2023/10/13 14:17:42;;;;;;;;;;;;;;;23.00;100.00;99981.03;4909994;29;20055;-49
2023/10/13 14:20:14;;;;;;;13.63;5.32;;;;;;;23.05;100.00;99988.75;4931359;29;20040;-48
2023/10/13 14:22:41;;;;;;;16.80;5.75;;;;;;;23.06;100.00;99978.94;4930992;29;20094;-42
2023/10/13 14:25:14;;;;;;;14.30;5.65;;;;;;;23.10;100.00;99983.06;4931123;29;20519;-39
2023/10/13 14:27:43;;;;;;;19.52;6.10;;;;;;;23.06;100.00;99982.56;4932598;29;20170;-46
2023/10/13 14:30:19;;;;;;;22.17;6.93;;;;;;;23.01;100.00;99966.34;4930944;29;20094;-42
2023/10/13 14:32:45;;;;;;;15.07;5.70;;;;;;;23.05;100.00;99975.31;4925639;29;20070;-42
2023/10/13 14:35:15;;;;;;;16.67;5.85;;;;;;;23.02;100.00;99973.53;4931103;29;20466;-40
2023/10/13 14:37:41;;;;;;;16.65;6.13;;;;;;;23.04;100.00;99973.78;4931185;29;20430;-43
2023/10/13 14:40:15;;;;;;;17.17;5.82;;;;;;;23.03;100.00;99982.81;4931304;29;20048;-38
2023/10/13 14:42:42;;;;;;;13.55;5.55;;;;;;;23.08;100.00;99979.97;4935358;29;20054;-41
2023/10/13 14:45:12;;;;;;;16.60;6.05;;;;;;;23.09;100.00;99978.66;4932857;29;20047;-41
2023/10/13 14:47:44;;;;;;;16.15;5.65;;;;;;;23.01;100.00;99980.50;4935706;29;20055;-42
2023/10/13 14:50:19;;;;;;;17.65;5.75;;;;;;;23.01;100.00;99986.16;4930093;29;20044;-44
2023/10/13 14:52:48;;;;;;;16.08;5.22;;;;;;;23.04;100.00;99979.47;4936051;29;20051;-40
2023/10/13 14:55:22;;;;;;;17.35;5.97;;;;;;;23.09;100.00;99980.75;4925218;29;20135;-45
2023/10/13 14:57:49;;;;;;;15.07;5.78;;;;;;;23.10;100.00;99987.94;4927083;29;20573;-42
2023/10/13 15:00:27;;;;;;;22.20;6.68;;;;;;;23.10;100.00;99982.28;4933055;29;20684;-42
2023/10/13 15:02:54;;;;;;;15.45;5.88;;;;;;;23.13;100.00;99979.19;4919981;29;20829;-40
2023/10/13 15:05:21;;;;;;;15.10;5.68;;;;;;;23.09;100.00;99967.31;4927416;29;20055;-41
2023/10/13 15:07:48;;;;;;;15.80;6.10;;;;;;;23.13;100.00;99973.50;4933385;29;20058;-43
2023/10/13 15:10:15;;;;;;;13.95;5.70;;;;;;;23.11;100.00;99989.47;4921486;29;20051;-45
2023/10/13 15:12:44;;;;;;;14.02;5.32;;;;;;;23.14;100.00;99974.25;4922282;29;20116;-40
2023/10/13 15:15:16;;;;;;;11.65;4.82;;;;;;;23.14;100.00;99960.09;4919451;29;20499;-41
2023/10/13 15:17:43;;;;;;;14.05;4.95;;;;;;;23.07;100.00;99975.59;4933445;29;20545;-40
2023/10/13 15:20:15;;;;;;;14.30;5.65;;;;;;;23.07;100.00;99969.91;4933635;29;20047;-42
2023/10/13 15:22:49;;;;;;;15.15;5.72;;;;;;;23.06;100.00;99959.88;4915115;29;20041;-43
2023/10/13 15:25:29;;;;;;;15.50;5.57;;;;;;;23.07;100.00;99969.13;4930803;29;20517;-44
2023/10/13 15:28:02;;;;;;;13.00;4.82;;;;;;;23.08;100.00;99968.63;4928990;29;20525;-41
2023/10/13 15:30:51;;;;;;;13.85;5.38;;;;;;;23.09;100.00;99961.66;4927840;29;20463;-43
2023/10/13 15:33:19;;;;;;;12.40;5.15;;;;;;;23.09;100.00;99972.25;4928237;29;20079;-43
2023/10/13 15:35:46;;;;;;;15.32;5.60;;;;;;;23.07;100.00;99971.97;4927686;29;20129;-46
2023/10/13 15:38:13;;;;;;;18.00;5.93;;;;;;;23.13;100.00;99967.06;4929271;29;20142;-41
2023/10/13 15:40:43;;;;;;;16.40;5.40;;;;;;;23.15;100.00;99982.25;4931273;29;20099;-43
2023/10/13 15:43:12;;;;;;;15.95;5.32;;;;;;;23.05;100.00;99974.56;4929870;29;20060;-42
2023/10/13 15:45:39;;;;;;;15.00;5.53;;;;;;;23.08;100.00;99985.63;4931963;29;20067;-42
2023/10/13 15:48:06;;;;;;;16.75;5.65;;;;;;;23.11;100.00;99978.13;4931255;29;20051;-43
2023/10/13 15:50:39;;;;;;;16.38;4.72;;;;;;;23.11;100.00;99983.81;4853305;29;20118;-42